Time;durP1;ratioP1;P1;durP2;ratioP2;P2;SDS_P1;SDS_P2;PMS_P1;PMS_P2;Temp;Humidity;BMP_temperature;BMP_pressure;BME280_temperature;BME280_humidity;BME280_pressure;Samples;Min_cycle;Max_cycle;Signal;HPM_P1;HPM_P2
2023/07/14 00:01:42;;;;;;;;;4.00;3.25;;;;;21.37;44.61;101203.53;5028285;28;45265;-67
2023/07/14 00:04:12;;;;;;;;;1.50;1.50;;;;;21.39;44.30;101206.94;5015808;28;75660;-67
2023/07/14 00:06:38;;;;;;;;;6.00;4.50;;;;;21.41;44.53;101204.19;5030376;28;45772;-67
2023/07/14 00:09:09;;;;;;;;;5.50;4.00;;;;;21.41;44.35;101193.53;5038128;28;45364;-67
2023/07/14 00:11:35;;;;;;;;;7.25;4.25;;;;;21.40;44.78;101197.13;5036979;28;45271;-67
2023/07/14 00:14:00;;;;;;;;;5.25;5.00;;;;;21.38;44.69;101189.25;5031600;28;46029;-67
2023/07/14 00:16:28;;;;;;;;;5.00;4.00;;;;;21.36;44.80;101188.50;5035376;28;73039;-67
2023/07/14 00:18:53;;;;;;;;;8.00;5.75;;;;;21.37;44.61;101182.22;5033265;28;45343;-67
2023/07/14 00:21:24;;;;;;;;;3.50;2.75;;;;;21.36;44.84;101180.50;5020785;28;66721;-67
2023/07/14 00:23:54;;;;;;;;;8.75;8.00;;;;;21.37;44.33;101168.03;5020809;28;47351;-66
2023/07/14 00:26:20;;;;;;;;;19.00;10.75;;;;;21.37;44.74;101174.25;5039904;28;45383;-67
2023/07/14 00:28:48;;;;;;;;;12.00;10.25;;;;;21.40;44.36;101181.16;5037948;28;45386;-67
2023/07/14 00:31:14;;;;;;;;;16.50;11.75;;;;;21.37;44.72;101176.03;5028011;28;45406;-66
2023/07/14 00:33:41;;;;;;;;;9.00;9.00;;;;;21.36;45.02;101177.84;5034406;28;46399;-67
2023/07/14 00:36:07;;;;;;;;;11.00;9.75;;;;;21.36;44.53;101175.19;5030254;28;45767;-67
2023/07/14 00:38:34;;;;;;;;;12.25;9.25;;;;;21.34;45.02;101176.25;5021882;28;45376;-67
2023/07/14 00:41:00;;;;;;;;;9.75;7.00;;;;;21.34;45.00;101171.78;5032383;28;45625;-66
2023/07/14 00:43:25;;;;;;;;;11.25;7.50;;;;;21.31;44.88;101173.78;5035644;28;45531;-67
2023/07/14 00:45:52;;;;;;;;;13.50;10.75;;;;;21.33;44.62;101178.03;5033528;28;61580;-67
2023/07/14 00:48:21;;;;;;;;;12.50;11.00;;;;;21.35;45.17;101172.63;5039856;28;45332;-67
2023/07/14 00:50:54;;;;;;;;;13.00;10.75;;;;;21.37;45.23;101165.38;5038846;28;45642;-67
2023/07/14 00:53:23;;;;;;;;;14.25;8.75;;;;;21.37;45.08;101152.94;5039248;28;47054;-67
2023/07/14 00:56:10;;;;;;;;;12.50;8.25;;;;;21.40;45.09;101163.38;5022240;28;45834;-67
2023/07/14 00:58:36;;;;;;;;;11.50;7.25;;;;;21.38;44.37;101157.28;5039321;28;45462;-67
2023/07/14 01:01:25;;;;;;;;;7.25;5.75;;;;;21.39;44.75;101158.16;5027303;28;45227;-67
2023/07/14 01:03:56;;;;;;;;;14.00;9.00;;;;;21.37;44.93;101150.28;5021918;28;47801;-67
2023/07/14 01:06:29;;;;;;;;;7.75;6.50;;;;;21.38;44.82;101148.47;5034785;28;45785;-67
2023/07/14 01:09:19;;;;;;;;;10.00;9.00;;;;;21.35;45.26;101138.84;5030380;28;45489;-67
2023/07/14 01:11:49;;;;;;;;;11.00;10.25;;;;;21.37;44.94;101136.09;5022664;28;45530;-67
2023/07/14 01:14:26;;;;;;;;;12.75;7.50;;;;;21.34;45.11;101142.50;5035372;28;45453;-67
2023/07/14 01:16:54;;;;;;;;;10.00;8.75;;;;;21.33;44.71;101134.59;5033093;28;45301;-67
2023/07/14 01:19:33;;;;;;;;;15.75;10.00;;;;;21.33;44.89;101134.59;5031605;28;45268;-67
2023/07/14 01:22:07;;;;;;;;;4.75;4.75;;;;;21.30;45.67;101135.66;5023644;28;45455;-67
2023/07/14 01:24:38;;;;;;;;;6.75;6.25;;;;;21.28;45.76;101128.72;5021983;28;48300;-67
2023/07/14 01:27:07;;;;;;;;;11.50;11.25;;;;;21.27;45.05;101133.19;5030132;28;45347;-67
2023/07/14 01:29:33;;;;;;;;;11.25;8.50;;;;;21.24;45.54;101128.91;5038812;28;45293;-68
2023/07/14 01:31:59;;;;;;;;;14.50;10.50;;;;;21.24;45.57;101131.56;5038733;28;50991;-68
2023/07/14 01:34:25;;;;;;;;;10.50;10.25;;;;;21.23;45.29;101113.06;5032938;28;46787;-67
2023/07/14 01:36:50;;;;;;;;;12.25;9.50;;;;;21.21;45.88;101110.50;5028442;28;60858;-67
2023/07/14 01:39:17;;;;;;;;;9.00;8.00;;;;;21.20;45.89;101110.59;5018887;28;45585;-67
2023/07/14 01:41:42;;;;;;;;;7.00;6.50;;;;;21.21;45.26;101114.94;5037345;28;50445;-68
2023/07/14 01:44:15;;;;;;;;;8.25;7.00;;;;;21.15;45.48;101096.75;5036122;28;46176;-67
2023/07/14 01:46:41;;;;;;;;;6.00;5.50;;;;;21.20;45.50;101110.59;5032392;28;46112;-67
2023/07/14 01:49:20;;;;;;;;;5.50;5.50;;;;;21.18;45.71;101107.19;5035995;28;67657;-68
2023/07/14 01:51:48;;;;;;;;;6.25;4.25;;;;;21.14;45.56;101100.34;5025895;28;45321;-68
2023/07/14 01:54:26;;;;;;;;;10.00;4.50;;;;;21.14;45.94;101103.00;5029308;28;47348;-68
2023/07/14 01:56:53;;;;;;;;;7.00;4.00;;;;;21.13;45.95;101101.31;5029626;28;45363;-68
2023/07/14 01:59:21;;;;;;;;;10.50;5.50;;;;;21.10;46.14;101097.03;5017297;28;45520;-68
2023/07/14 02:01:49;;;;;;;;;5.00;5.00;;;;;21.10;46.03;101093.53;5026421;28;45498;-68
2023/07/14 02:04:22;;;;;;;;;8.50;8.00;;;;;21.10;46.23;101088.19;5031984;28;47262;-68
2023/07/14 02:06:47;;;;;;;;;9.75;5.75;;;;;21.07;45.99;101075.09;5026013;28;45830;-68
2023/07/14 02:09:19;;;;;;;;;8.75;6.25;;;;;21.09;46.06;101090.03;5033276;28;45423;-68
2023/07/14 02:11:48;;;;;;;;;10.00;7.00;;;;;21.08;45.82;101098.09;5026428;28;45320;-68
2023/07/14 02:14:17;;;;;;;;;13.25;5.00;;;;;21.07;46.08;101099.03;5031975;28;46608;-68
2023/07/14 02:16:45;;;;;;;;;11.25;8.00;;;;;21.05;46.43;101094.69;5044929;28;45646;-68
2023/07/14 02:19:16;;;;;;;;;10.50;8.00;;;;;21.04;46.02;101090.31;5035493;28;45256;-67
2023/07/14 02:21:42;;;;;;;;;13.25;10.00;;;;;21.02;46.51;101089.56;5020142;28;45470;-67
2023/07/14 02:24:16;;;;;;;;;13.25;11.50;;;;;21.00;46.29;101088.81;5018838;28;47116;-67
2023/07/14 02:26:41;;;;;;;;;14.25;12.00;;;;;20.97;46.51;101094.31;5027227;28;45693;-68
2023/07/14 02:29:10;;;;;;;;;18.00;12.50;;;;;20.96;46.49;101086.44;5033198;28;64496;-67
2023/07/14 02:31:44;;;;;;;;;15.00;11.75;;;;;20.95;46.50;101093.56;5027832;28;61932;-67
2023/07/14 02:34:10;;;;;;;;;13.00;9.75;;;;;20.94;46.70;101091.00;5055234;28;45479;-67
2023/07/14 02:36:44;;;;;;;;;14.25;12.50;;;;;20.92;46.74;101090.25;5027318;28;45255;-67
2023/07/14 02:39:09;;;;;;;;;13.50;12.50;;;;;20.92;46.59;101090.25;5036616;28;45258;-67
2023/07/14 02:41:40;;;;;;;;;9.75;7.25;;;;;20.91;46.82;101086.75;5022652;28;45320;-67
2023/07/14 02:44:09;;;;;;;;;17.00;11.00;;;;;20.89;47.18;101085.97;5041144;28;45454;-67
2023/07/14 02:46:46;;;;;;;;;11.00;6.25;;;;;20.87;46.88;101085.22;5033903;28;45846;-67
2023/07/14 02:49:11;;;;;;;;;9.25;4.75;;;;;20.85;47.14;101081.81;5039037;28;45438;-67
2023/07/14 02:51:37;;;;;;;;;10.00;7.75;;;;;20.81;46.74;101083.81;5038715;28;52672;-67
2023/07/14 02:54:04;;;;;;;;;11.00;7.50;;;;;20.82;46.81;101080.22;5038698;28;71157;-67
2023/07/14 02:56:30;;;;;;;;;8.50;7.75;;;;;20.79;46.96;101071.59;5025716;28;45850;-66
2023/07/14 02:58:56;;;;;;;;;5.25;5.00;;;;;20.80;46.99;101066.16;5039953;28;45404;-67
2023/07/14 03:01:21;;;;;;;;;7.25;6.00;;;;;20.77;47.23;101065.50;5029086;28;45325;-67
2023/07/14 03:03:47;;;;;;;;;6.75;6.50;;;;;20.76;46.83;101069.97;5039071;28;46254;-67
2023/07/14 03:06:15;;;;;;;;;9.75;7.50;;;;;20.73;46.86;101070.16;5038710;28;45292;-67
2023/07/14 03:08:40;;;;;;;;;8.50;6.00;;;;;20.70;47.19;101067.72;5022648;28;45341;-67
2023/07/14 03:11:06;;;;;;;;;5.25;4.00;;;;;20.72;47.11;101070.28;5040841;28;45447;-67
2023/07/14 03:13:31;;;;;;;;;8.75;6.00;;;;;20.70;46.96;101069.50;5037918;28;62331;-67
2023/07/14 03:15:57;;;;;;;;;6.00;6.00;;;;;20.70;47.31;101061.53;5023293;28;58563;-67
2023/07/14 03:18:23;;;;;;;;;7.75;5.25;;;;;20.67;47.45;101049.28;5033474;28;45381;-67
2023/07/14 03:20:48;;;;;;;;;7.25;6.75;;;;;20.63;47.00;101053.09;5039403;28;45737;-67
2023/07/14 03:23:14;;;;;;;;;9.00;5.50;;;;;20.62;47.18;101048.72;5024246;28;47139;-67
2023/07/14 03:25:39;;;;;;;;;7.50;5.25;;;;;20.62;47.51;101043.41;5035470;28;45422;-67
2023/07/14 03:28:05;;;;;;;;;10.00;6.75;;;;;20.62;47.33;101044.25;5032086;28;45366;-67
2023/07/14 03:30:37;;;;;;;;;8.75;6.00;;;;;20.61;47.46;101044.31;5020069;28;45320;-67
2023/07/14 03:33:03;;;;;;;;;7.50;5.75;;;;;20.61;47.71;101047.88;5024272;28;46388;-67
2023/07/14 03:35:28;;;;;;;;;9.00;7.50;;;;;20.63;47.20;101056.59;5035975;28;67370;-67
2023/07/14 03:37:53;;;;;;;;;8.75;6.00;;;;;20.62;47.51;101044.25;5041622;28;45336;-67
2023/07/14 03:40:19;;;;;;;;;10.25;7.75;;;;;20.65;47.83;101046.72;5035323;28;45393;-67
2023/07/14 03:42:44;;;;;;;;;6.50;4.75;;;;;20.64;47.64;101042.34;5034449;28;71787;-67
2023/07/14 03:45:09;;;;;;;;;6.25;5.50;;;;;20.66;47.35;101037.81;5035221;28;45236;-67
2023/07/14 03:47:36;;;;;;;;;6.25;4.75;;;;;20.69;47.73;101033.22;5024252;28;45666;-66
2023/07/14 03:50:02;;;;;;;;;6.50;5.00;;;;;20.71;47.59;101034.81;5039875;28;45623;-67
2023/07/14 03:52:27;;;;;;;;;5.50;4.50;;;;;20.73;47.45;101029.41;5036236;28;45244;-66
2023/07/14 03:54:53;;;;;;;;;6.25;4.75;;;;;20.72;47.79;101020.59;5031681;28;58323;-67
2023/07/14 03:57:18;;;;;;;;;7.00;5.00;;;;;20.76;47.70;101021.25;5047700;28;63322;-66
2023/07/14 03:59:43;;;;;;;;;6.25;5.00;;;;;20.76;47.25;101010.59;5037342;28;71282;-67
2023/07/14 04:02:09;;;;;;;;;5.75;3.50;;;;;20.79;47.07;101013.91;5038574;28;64015;-66
2023/07/14 04:04:34;;;;;;;;;6.50;4.50;;;;;20.78;47.57;101014.84;5036670;28;55589;-67
2023/07/14 04:06:59;;;;;;;;;8.75;6.00;;;;;20.82;47.32;101021.69;5040002;28;50401;-67
2023/07/14 04:09:25;;;;;;;;;5.75;4.75;;;;;20.85;47.40;101016.16;5038071;28;45736;-67
2023/07/14 04:11:51;;;;;;;;;3.25;3.25;;;;;20.90;47.52;101018.53;5032260;28;45462;-67
2023/07/14 04:14:16;;;;;;;;;5.25;5.25;;;;;20.94;47.61;101022.69;5023005;28;45272;-67
2023/07/14 04:16:41;;;;;;;;;5.50;4.00;;;;;20.96;47.43;101018.09;5024035;28;45466;-67
2023/07/14 04:19:07;;;;;;;;;3.50;2.00;;;;;20.98;47.01;101012.69;5054881;28;64393;-67
2023/07/14 04:21:33;;;;;;;;;4.00;3.75;;;;;21.01;47.19;101005.34;5028880;28;45422;-67
2023/07/14 04:23:58;;;;;;;;;5.25;3.75;;;;;21.05;47.60;101006.00;5034642;28;46082;-67
2023/07/14 04:26:25;;;;;;;;;6.25;4.50;;;;;21.09;47.37;101010.19;5029136;28;45378;-66
2023/07/14 04:28:51;;;;;;;;;4.50;4.00;;;;;21.14;47.48;101017.84;5035331;28;45368;-67
2023/07/14 04:31:17;;;;;;;;;5.00;4.75;;;;;21.12;47.09;101009.94;5030288;28;58064;-66
2023/07/14 04:33:44;;;;;;;;;4.50;4.00;;;;;21.19;47.03;101015.72;5035540;28;57285;-68
2023/07/14 04:36:09;;;;;;;;;7.75;5.00;;;;;21.18;46.65;101009.56;5035448;28;45507;-68
2023/07/14 04:38:35;;;;;;;;;6.25;5.00;;;;;21.22;47.12;101008.38;5039216;28;45259;-66
2023/07/14 04:41:00;;;;;;;;;6.50;5.25;;;;;21.25;46.63;101010.00;5030709;28;46052;-66
2023/07/14 04:43:25;;;;;;;;;6.25;5.00;;;;;21.23;46.50;100993.28;5036433;28;45341;-67
2023/07/14 04:45:51;;;;;;;;;6.00;5.00;;;;;21.26;46.79;101002.88;5032603;28;46057;-66
2023/07/14 04:48:18;;;;;;;;;5.75;5.00;;;;;21.28;46.76;100999.13;5036702;28;45158;-67
2023/07/14 04:50:45;;;;;;;;;8.00;6.00;;;;;21.28;46.47;100995.63;5031094;28;47325;-67
2023/07/14 04:53:11;;;;;;;;;11.00;5.25;;;;;21.28;46.84;100993.81;5025896;28;45864;-67
2023/07/14 04:55:41;;;;;;;;;8.25;7.00;;;;;21.28;46.81;100992.97;5038247;28;45281;-68
2023/07/14 04:58:08;;;;;;;;;9.00;5.00;;;;;21.29;46.71;100998.19;5036805;28;45474;-68
2023/07/14 05:00:35;;;;;;;;;6.00;5.25;;;;;21.28;46.89;100990.28;5026568;28;48480;-68
2023/07/14 05:03:01;;;;;;;;;8.25;5.00;;;;;21.29;46.40;100963.56;5036843;28;45296;-68
2023/07/14 05:05:26;;;;;;;;;8.75;6.75;;;;;21.31;46.89;100942.19;5037963;28;67888;-68
2023/07/14 05:07:52;;;;;;;;;5.50;4.25;;;;;21.32;46.63;100954.50;5034645;28;45394;-68
2023/07/14 05:10:19;;;;;;;;;6.00;3.75;;;;;21.32;46.80;100951.84;5030730;28;45242;-70
2023/07/14 05:12:44;;;;;;;;;8.00;4.75;;;;;21.31;46.43;100943.03;5037343;28;45654;-68
2023/07/14 05:15:10;;;;;;;;;6.50;4.50;;;;;21.33;46.92;100934.94;5035570;28;45371;-68
2023/07/14 05:17:41;;;;;;;;;6.25;4.00;;;;;21.33;47.01;100930.44;5033887;28;45404;-68
2023/07/14 05:20:10;;;;;;;;;3.50;3.25;;;;;21.34;47.23;100926.00;5029248;28;46388;-68
2023/07/14 05:22:36;;;;;;;;;5.75;3.50;;;;;21.33;47.33;100918.97;5038563;28;45305;-68
2023/07/14 05:25:01;;;;;;;;;4.75;3.25;;;;;21.34;47.48;100921.53;5034077;28;45372;-68
2023/07/14 05:27:26;;;;;;;;;4.50;3.25;;;;;21.33;47.57;100901.16;5038149;28;67933;-68
2023/07/14 05:29:53;;;;;;;;;6.00;2.75;;;;;21.34;47.38;100892.25;5033258;28;66683;-68
2023/07/14 05:32:19;;;;;;;;;4.00;3.75;;;;;21.33;47.54;100889.69;5030572;28;45407;-68
2023/07/14 05:34:45;;;;;;;;;3.75;3.00;;;;;21.35;47.12;100895.75;5038556;28;46014;-68
2023/07/14 05:37:11;;;;;;;;;5.00;3.75;;;;;21.35;47.32;100898.41;5029976;28;72489;-68
2023/07/14 05:39:36;;;;;;;;;5.75;2.50;;;;;21.36;46.67;100908.09;5033621;28;46382;-68
2023/07/14 05:42:03;;;;;;;;;3.75;3.00;;;;;21.33;46.60;100901.16;5031743;28;64910;-68
2023/07/14 05:44:29;;;;;;;;;7.00;4.75;;;;;21.37;46.88;100901.81;5034188;28;45390;-68
2023/07/14 05:46:55;;;;;;;;;4.50;2.50;;;;;21.38;46.59;100914.16;5018846;28;45468;-68
2023/07/14 05:49:20;;;;;;;;;3.25;3.00;;;;;21.40;46.90;100914.91;5026784;28;71550;-68
2023/07/14 05:51:45;;;;;;;;;3.75;2.75;;;;;21.45;46.52;100912.78;5025813;28;45282;-67
2023/07/14 05:54:11;;;;;;;;;2.25;2.00;;;;;21.50;46.71;100907.19;5032810;28;67405;-68
2023/07/14 05:56:36;;;;;;;;;4.00;3.00;;;;;21.51;46.36;100909.72;5041634;28;64352;-67
2023/07/14 05:59:02;;;;;;;;;5.25;3.00;;;;;21.54;46.36;100906.84;5036513;28;67793;-67
2023/07/14 06:01:28;;;;;;;;;3.75;3.00;;;;;21.53;46.63;100898.94;5027391;28;45423;-67
2023/07/14 06:03:53;;;;;;;;;5.75;2.50;;;;;21.54;46.46;100912.16;5035938;28;65356;-67
2023/07/14 06:06:18;;;;;;;;;2.75;2.00;;;;;21.56;46.03;100899.59;5026893;28;56937;-67
2023/07/14 06:08:45;;;;;;;;;4.50;2.25;;;;;21.55;45.90;100887.25;5037569;28;45335;-67
2023/07/14 06:11:10;;;;;;;;;5.50;3.00;;;;;21.53;46.04;100874.97;5021569;28;45332;-67
2023/07/14 06:13:35;;;;;;;;;2.75;2.25;;;;;21.55;46.02;100878.41;5045650;28;45280;-67
2023/07/14 06:16:01;;;;;;;;;4.00;3.00;;;;;21.58;45.73;100908.34;5029334;28;45325;-66
2023/07/14 06:18:27;;;;;;;;;4.00;4.00;;;;;21.58;45.55;100895.03;5038408;28;45453;-66
2023/07/14 06:20:52;;;;;;;;;4.00;3.75;;;;;21.66;45.76;100885.63;5035911;28;65643;-67
2023/07/14 06:23:17;;;;;;;;;3.25;2.75;;;;;21.73;45.96;100893.06;5055310;28;45360;-67
2023/07/14 06:25:43;;;;;;;;;4.00;2.25;;;;;21.83;45.24;100911.91;5028431;28;45147;-67
2023/07/14 06:28:09;;;;;;;;;3.00;3.00;;;;;21.89;44.80;100910.63;5029772;28;45328;-66
2023/07/14 06:30:35;;;;;;;;;6.00;2.00;;;;;21.91;45.43;100906.03;5017308;28;45165;-67
2023/07/14 06:33:01;;;;;;;;;3.75;3.75;;;;;21.97;45.33;100917.13;5039904;28;45314;-67
2023/07/14 06:35:27;;;;;;;;;2.75;2.75;;;;;22.02;44.65;100898.09;5033122;28;45379;-67
2023/07/14 06:37:52;;;;;;;;;4.00;2.00;;;;;22.07;44.52;100884.47;5030544;28;45440;-67
2023/07/14 06:40:20;;;;;;;;;5.00;3.00;;;;;22.08;44.43;100863.03;5032451;28;45451;-67
2023/07/14 06:42:45;;;;;;;;;9.00;3.00;;;;;22.12;44.60;100858.31;5032118;28;45455;-66
2023/07/14 06:45:11;;;;;;;;;4.00;3.00;;;;;22.19;44.38;100867.56;5032777;28;45491;-66
2023/07/14 06:47:37;;;;;;;;;5.00;2.75;;;;;22.23;44.24;100863.69;5033053;28;46378;-66
2023/07/14 06:50:03;;;;;;;;;2.75;2.75;;;;;22.30;44.30;100867.63;5037291;28;45229;-67
2023/07/14 06:52:28;;;;;;;;;2.75;2.00;;;;;22.37;44.22;100857.38;5034192;28;45341;-66
2023/07/14 06:54:54;;;;;;;;;4.75;3.25;;;;;22.43;44.29;100856.91;5036252;28;65379;-66
2023/07/14 06:57:19;;;;;;;;;4.25;3.25;;;;;22.45;43.95;100860.31;5035013;28;45331;-66
2023/07/14 06:59:45;;;;;;;;;2.50;2.50;;;;;22.50;43.57;100865.28;5026371;28;45415;-66
2023/07/14 07:02:12;;;;;;;;;5.50;3.00;;;;;22.51;43.48;100867.00;5043538;28;45463;-66
2023/07/14 07:04:37;;;;;;;;;3.50;2.50;;;;;22.53;43.75;100867.75;5032381;28;45644;-67
2023/07/14 07:07:04;;;;;;;;;2.50;2.50;;;;;22.57;43.76;100855.88;5037057;28;45543;-68
2023/07/14 07:09:29;;;;;;;;;2.75;2.00;;;;;22.63;43.54;100846.53;5020440;28;45749;-66
2023/07/14 07:11:55;;;;;;;;;5.00;4.00;;;;;22.67;43.13;100840.88;5019989;28;45293;-66
2023/07/14 07:14:20;;;;;;;;;6.25;4.25;;;;;22.80;42.86;100847.94;5031071;28;45339;-66
2023/07/14 07:16:45;;;;;;;;;4.00;4.00;;;;;22.84;42.78;100842.25;5018907;28;66723;-66
2023/07/14 07:19:11;;;;;;;;;4.75;4.00;;;;;22.89;42.83;100837.38;5047684;28;45340;-67
2023/07/14 07:21:36;;;;;;;;;7.50;6.50;;;;;22.98;42.96;100837.66;5026112;28;47142;-66
2023/07/14 07:24:06;;;;;;;;;6.50;4.25;;;;;23.06;42.89;100837.94;5035986;28;45337;-67
2023/07/14 07:26:31;;;;;;;;;6.00;4.25;;;;;23.11;42.97;100836.63;5030112;28;46082;-67
2023/07/14 07:28:57;;;;;;;;;4.25;4.00;;;;;23.13;42.42;100832.00;5054360;28;45448;-67
2023/07/14 07:31:22;;;;;;;;;3.25;2.00;;;;;23.11;41.91;100823.25;5030283;28;45375;-67
2023/07/14 07:33:47;;;;;;;;;4.25;4.00;;;;;23.19;42.48;100824.47;5037200;28;45406;-67
2023/07/14 07:36:17;;;;;;;;;4.00;3.50;;;;;23.29;42.42;100820.97;5023999;28;62348;-67
2023/07/14 07:38:51;;;;;;;;;5.25;4.00;;;;;23.42;41.86;100828.84;5039310;28;45241;-67
2023/07/14 07:41:19;;;;;;;;;5.25;3.25;;;;;23.52;42.04;100822.78;5019643;28;45419;-67
2023/07/14 07:43:44;;;;;;;;;3.00;3.00;;;;;23.57;41.55;100821.44;5025863;28;45305;-67
2023/07/14 07:46:10;;;;;;;;;3.25;3.25;;;;;23.64;41.98;100825.31;5040389;28;45442;-67
2023/07/14 07:48:36;;;;;;;;;5.75;3.25;;;;;23.72;41.50;100832.69;5041309;28;45324;-67
2023/07/14 07:51:03;;;;;;;;;5.00;2.00;;;;;23.75;41.39;100820.91;5026121;28;45392;-67
2023/07/14 07:53:29;;;;;;;;;4.25;3.00;;;;;23.80;41.09;100813.38;5040822;28;45336;-68
2023/07/14 07:55:56;;;;;;;;;5.50;1.00;;;;;23.90;40.87;100810.81;5037909;28;52236;-68
2023/07/14 07:58:24;;;;;;;;;6.75;6.50;;;;;23.93;40.73;100795.38;5034013;28;45297;-68
2023/07/14 08:00:58;;;;;;;;;4.75;3.50;;;;;24.01;40.81;100800.94;5030661;28;45193;-67
2023/07/14 08:03:24;;;;;;;;;3.50;3.25;;;;;24.07;40.77;100788.88;5041766;28;45291;-67
2023/07/14 08:05:49;;;;;;;;;6.50;4.00;;;;;24.14;40.16;100790.06;5037309;28;45419;-67
2023/07/14 08:08:15;;;;;;;;;3.75;3.75;;;;;24.18;40.56;100783.47;5039693;28;60934;-67
2023/07/14 08:10:42;;;;;;;;;6.75;3.00;;;;;24.21;39.71;100782.41;5039030;28;45206;-67
2023/07/14 08:13:09;;;;;;;;;4.75;3.25;;;;;24.25;39.87;100781.16;5023829;28;45292;-67
2023/07/14 08:15:37;;;;;;;;;5.50;4.00;;;;;24.37;39.74;100776.59;5039545;28;47817;-68
2023/07/14 08:18:03;;;;;;;;;5.25;3.25;;;;;24.49;39.74;100772.88;5029068;28;45253;-67
2023/07/14 08:20:29;;;;;;;;;3.75;2.50;;;;;24.57;39.52;100770.41;5033731;28;45184;-67
2023/07/14 08:22:54;;;;;;;;;3.00;3.00;;;;;24.60;39.82;100777.34;5023419;28;45534;-67
2023/07/14 08:25:21;;;;;;;;;6.50;2.50;;;;;24.58;38.63;100779.31;5021196;28;47491;-67
2023/07/14 08:27:46;;;;;;;;;4.00;2.25;;;;;24.61;39.13;100777.22;5036610;28;45697;-68
2023/07/14 08:30:12;;;;;;;;;2.75;2.75;;;;;24.73;38.88;100774.44;5033261;28;45794;-67
2023/07/14 08:32:37;;;;;;;;;3.00;3.00;;;;;24.88;38.32;100773.13;5033283;28;45594;-67
2023/07/14 08:35:03;;;;;;;;;5.50;4.00;;;;;25.00;38.39;100771.19;5033064;28;55099;-67
2023/07/14 08:37:28;;;;;;;;;6.50;2.00;;;;;25.11;38.83;100773.81;5038899;28;45446;-67
2023/07/14 08:39:54;;;;;;;;;3.00;2.00;;;;;25.16;38.56;100773.38;5033432;28;45384;-67
2023/07/14 08:42:41;;;;;;;;;4.00;3.25;;;;;25.17;37.86;100761.69;5033837;28;45489;-67
2023/07/14 08:45:31;;;;;;;;;4.25;3.25;;;;;25.22;38.09;100769.34;5019107;28;47459;-67
2023/07/14 08:48:28;;;;;;;;;4.00;2.25;;;;;25.19;37.90;100754.38;5040206;28;45281;-68
2023/07/14 08:50:55;;;;;;;;;2.50;2.50;;;;;25.19;38.04;100749.84;5027717;28;45444;-67
2023/07/14 08:53:24;;;;;;;;;2.75;2.50;;;;;25.15;38.24;100734.19;5038644;28;45360;-67
2023/07/14 08:55:50;;;;;;;;;4.25;2.75;;;;;25.12;37.46;100729.94;5036964;28;46377;-68
2023/07/14 08:58:22;;;;;;;;;4.75;2.00;;;;;25.13;38.07;100728.16;5038829;28;46358;-68
2023/07/14 09:00:50;;;;;;;;;4.00;2.50;;;;;25.14;38.17;100722.66;5037699;28;45239;-67
2023/07/14 09:03:32;;;;;;;;;5.75;3.75;;;;;25.17;37.08;100708.97;5027846;28;45281;-67
2023/07/14 09:06:01;;;;;;;;;4.50;2.25;;;;;25.30;37.39;100700.72;5021766;28;47405;-67
2023/07/14 09:08:28;;;;;;;;;4.25;1.50;;;;;25.40;37.21;100711.44;5040699;28;45868;-67
2023/07/14 09:11:16;;;;;;;;;5.75;2.00;;;;;25.48;35.77;100706.25;5019913;28;45384;-67
2023/07/14 09:13:50;;;;;;;;;2.00;2.00;;;;;25.54;35.96;100700.31;5032078;28;45344;-67
2023/07/14 09:16:18;;;;;;;;;4.75;3.00;;;;;25.56;36.30;100698.34;5029909;28;46973;-67
2023/07/14 09:18:59;;;;;;;;;2.25;2.00;;;;;25.63;35.63;100692.44;5032410;28;45333;-66
2023/07/14 09:21:39;;;;;;;;;3.00;2.00;;;;;25.65;35.52;100695.81;5035841;28;45307;-67
2023/07/14 09:24:26;;;;;;;;;1.50;1.50;;;;;25.62;35.53;100693.41;5036475;28;45230;-67
2023/07/14 09:26:54;;;;;;;;;4.00;1.75;;;;;25.55;34.84;100685.94;5039121;28;45320;-66
2023/07/14 09:29:40;;;;;;;;;3.25;1.25;;;;;25.52;34.67;100693.44;5035930;28;45764;-67
2023/07/14 09:32:14;;;;;;;;;2.00;2.00;;;;;25.47;35.26;100676.91;5037159;28;45355;-67
2023/07/14 09:34:42;;;;;;;;;4.00;1.00;;;;;25.48;35.21;100676.78;5021730;28;45340;-68
2023/07/14 09:37:18;;;;;;;;;2.25;1.75;;;;;25.52;35.05;100669.31;5021770;28;47167;-67
2023/07/14 09:39:43;;;;;;;;;2.00;1.00;;;;;25.53;35.43;100669.19;5032349;28;45460;-67
2023/07/14 09:42:23;;;;;;;;;7.00;1.25;;;;;25.58;35.30;100674.09;5033656;28;45308;-67
2023/07/14 09:44:48;;;;;;;;;1.75;1.00;;;;;25.61;35.03;100659.59;5036340;28;45339;-67
2023/07/14 09:47:14;;;;;;;;;2.75;1.25;;;;;25.62;34.63;100659.44;5026785;28;77725;-67
2023/07/14 09:49:46;;;;;;;;;1.00;1.00;;;;;25.68;34.81;100658.88;5035178;28;46036;-67
2023/07/14 09:52:20;;;;;;;;;2.00;2.00;;;;;25.69;34.50;100652.53;5022034;28;45382;-67
2023/07/14 09:54:57;;;;;;;;;1.00;1.00;;;;;25.75;34.76;100643.06;5035974;28;45371;-66
2023/07/14 09:57:35;;;;;;;;;2.50;2.00;;;;;25.78;33.93;100645.44;5027530;28;47405;-67
2023/07/14 10:00:13;;;;;;;;;2.50;1.25;;;;;25.82;34.01;100629.94;5014118;28;45468;-67
2023/07/14 10:02:39;;;;;;;;;3.75;1.00;;;;;25.91;34.42;100634.44;5037036;28;45341;-68
2023/07/14 10:05:34;;;;;;;;;5.50;1.75;;;;;26.02;33.95;100623.56;5032224;28;45403;-67
2023/07/14 10:08:00;;;;;;;;;5.00;2.00;;;;;26.11;33.88;100621.88;5021740;28;47121;-67
2023/07/14 10:10:26;;;;;;;;;3.00;1.00;;;;;26.14;33.23;100608.16;5029523;28;45266;-67
2023/07/14 10:12:52;;;;;;;;;1.50;1.50;;;;;26.16;34.18;100606.19;5037419;28;45695;-67
2023/07/14 10:15:30;;;;;;;;;2.50;1.00;;;;;26.18;33.75;100608.72;5037747;28;45360;-68
2023/07/14 10:18:00;;;;;;;;;3.25;1.25;;;;;26.21;32.12;100616.50;5025110;28;48068;-67
2023/07/14 10:20:33;;;;;;;;;0.25;0.00;;;;;26.21;31.75;100601.22;5021149;28;45254;-68
2023/07/14 10:22:59;;;;;;;;;3.75;1.75;;;;;26.21;32.91;100601.22;5021689;28;45246;-68
2023/07/14 10:25:27;;;;;;;;;3.00;2.00;;;;;26.24;33.13;100595.56;5032121;28;45505;-67
2023/07/14 10:27:55;;;;;;;;;2.25;1.25;;;;;26.26;32.53;100596.28;5038265;28;45593;-68
2023/07/14 10:30:23;;;;;;;;;4.00;3.50;;;;;26.30;32.95;100591.47;5032887;28;45462;-67
2023/07/14 10:32:55;;;;;;;;;4.25;1.75;;;;;26.32;32.56;100579.56;5038418;28;45392;-67
2023/07/14 10:35:29;;;;;;;;;2.00;2.00;;;;;26.34;32.72;100582.94;5034095;28;45509;-67
2023/07/14 10:38:16;;;;;;;;;2.00;1.00;;;;;26.43;32.19;100583.06;5036372;28;45427;-67
2023/07/14 10:40:57;;;;;;;;;2.00;1.25;;;;;26.55;32.69;100565.78;5020446;28;45747;-66
2023/07/14 10:43:35;;;;;;;;;2.50;1.25;;;;;26.80;32.25;100563.41;5025582;28;45396;-67
2023/07/14 10:46:07;;;;;;;;;5.25;1.00;;;;;26.94;32.37;100559.34;5034780;28;45408;-67
2023/07/14 10:48:44;;;;;;;;;3.00;3.00;;;;;27.05;32.39;100559.94;5036441;28;46859;-67
2023/07/14 10:51:36;;;;;;;;;4.25;1.75;;;;;27.18;32.16;100550.66;5032988;28;45450;-68
2023/07/14 10:54:21;;;;;;;;;3.25;2.00;;;;;27.31;31.58;100544.97;5035848;28;45397;-68
2023/07/14 10:56:51;;;;;;;;;1.75;1.75;;;;;27.38;32.17;100536.09;5026198;28;45568;-68
2023/07/14 10:59:30;;;;;;;;;1.00;1.00;;;;;27.55;31.94;100536.22;5018976;28;46382;-67
2023/07/14 11:02:11;;;;;;;;;3.25;3.00;;;;;27.64;31.74;100528.06;5024075;28;45589;-68
2023/07/14 11:04:47;;;;;;;;;1.75;1.00;;;;;27.63;31.26;100514.78;5035663;28;45424;-67
2023/07/14 11:07:38;;;;;;;;;1.00;1.00;;;;;27.53;31.39;100516.72;5017167;28;45641;-68
2023/07/14 11:10:13;;;;;;;;;2.50;2.00;;;;;27.49;30.54;100502.75;5028769;28;69554;-68
2023/07/14 11:13:26;;;;;;;;;2.25;1.75;;;;;27.40;30.93;100498.31;5027426;28;45522;-67
2023/07/14 11:15:55;;;;;;;;;3.00;2.00;;;;;27.28;31.44;100492.34;5031075;28;45656;-67
2023/07/14 11:18:25;;;;;;;;;2.00;1.25;;;;;27.30;31.43;100509.16;5031983;28;45414;-67
2023/07/14 11:21:11;;;;;;;;;1.00;1.00;;;;;27.33;31.82;100498.09;5030333;28;46247;-67
2023/07/14 11:23:47;;;;;;;;;3.50;3.00;;;;;27.44;31.41;100479.03;5035418;28;45241;-67
2023/07/14 11:26:57;;;;;;;;;2.50;1.00;;;;;27.61;31.51;100471.91;5031656;28;45341;-67
2023/07/14 11:29:26;;;;;;;;;3.00;3.00;;;;;27.84;31.84;100480.28;5014333;28;45526;-67
2023/07/14 11:31:54;;;;;;;;;2.25;2.25;;;;;28.02;30.12;100469.47;5031387;28;45324;-67
2023/07/14 11:34:39;;;;;;;;;2.50;1.00;;;;;28.14;30.67;100458.44;5037756;28;45395;-67